KAIB

Hopkins Field Airport

Nucla, Colorado, USA
METAR KAIB 171235Z AUTO 00000KT 10SM OVC026 05/00 A3038 RMK AO2
Observed Flight Rules
Oct-17 @ 12:35 UTC (15 minutes ago) Marginal Visual Flight Rules
Visibility Clouds
10 miles
  • Overcast at 2,600' AGL
Temperatures Readings
Current 5°C / 41°F
Dewpoint 0°C / 32°F
Humidity 70%
Altimeter 30.38" Hg
Pressure 1029 hPa
Elevation 1811
METAR KAIB 171235Z AUTO 00000KT 10SM OVC026 05/00 A3038 RMK AO2
Observed Flight Rules
Oct-17 @ 12:35 UTC
(15 minutes ago)
MVFR
Clouds
  • Overcast at 2,600' AGL
Temperature Dewpoint
5°C / 41°F 0°C / 32°F
Humidity Altimeter Pressure
70% 30.38" Hg 1029 hPa